createdAt,value
2022-12-11T00:02:31.964Z,11.90
2022-12-11T00:05:41.110Z,11.59
2022-12-11T00:08:47.929Z,11.72
2022-12-11T00:11:54.186Z,11.56
2022-12-11T00:15:02.203Z,11.48
2022-12-11T00:18:09.861Z,11.67
2022-12-11T00:21:16.622Z,11.85
2022-12-11T00:24:23.130Z,11.64
2022-12-11T00:27:30.036Z,11.86
2022-12-11T00:30:54.176Z,11.99
2022-12-11T00:34:00.360Z,11.88
2022-12-11T00:37:07.065Z,11.64
2022-12-11T00:40:13.740Z,11.85
2022-12-11T00:43:20.038Z,11.63
2022-12-11T00:46:27.812Z,11.55
2022-12-11T00:49:34.124Z,11.47
2022-12-11T00:52:40.872Z,11.59
2022-12-11T00:55:47.504Z,11.53
2022-12-11T00:58:53.570Z,11.64
2022-12-11T01:02:01.187Z,11.73
2022-12-11T01:05:09.245Z,11.63
2022-12-11T01:08:15.709Z,11.53
2022-12-11T01:11:22.105Z,11.47
2022-12-11T01:14:28.554Z,11.68
2022-12-11T01:17:36.213Z,11.78
2022-12-11T01:20:43.719Z,11.73
2022-12-11T01:23:51.525Z,11.81
2022-12-11T01:26:57.529Z,11.81
2022-12-11T01:30:03.733Z,11.59
2022-12-11T01:33:11.813Z,11.61
2022-12-11T01:36:21.027Z,11.74
2022-12-11T01:39:27.288Z,11.65
2022-12-11T01:42:33.373Z,11.78
2022-12-11T01:45:44.843Z,11.41
2022-12-11T01:48:52.765Z,11.56
2022-12-11T01:52:01.911Z,11.98
2022-12-11T01:55:10.208Z,11.83
2022-12-11T01:58:19.492Z,11.96
2022-12-11T02:01:33.567Z,12.13
2022-12-11T02:04:43.373Z,11.88
2022-12-11T02:07:53.743Z,11.95
2022-12-11T02:11:07.699Z,11.74
2022-12-11T02:14:21.660Z,11.78
2022-12-11T02:17:35.146Z,11.86
2022-12-11T02:20:49.365Z,11.96
2022-12-11T02:24:10.397Z,11.75
2022-12-11T02:27:28.725Z,11.76
2022-12-11T02:30:38.436Z,11.94
2022-12-11T02:34:00.029Z,11.94
2022-12-11T02:37:11.125Z,11.76
2022-12-11T02:40:23.569Z,11.96
2022-12-11T02:43:32.308Z,11.64
2022-12-11T02:46:41.629Z,11.68
2022-12-11T02:49:50.899Z,11.74
2022-12-11T02:52:59.469Z,11.53
2022-12-11T02:56:12.394Z,11.54
2022-12-11T02:59:22.872Z,11.51
2022-12-11T03:02:31.092Z,11.59
2022-12-11T03:05:37.595Z,11.55
2022-12-11T03:08:44.097Z,11.77
2022-12-11T03:11:50.754Z,11.66
2022-12-11T03:14:59.573Z,11.75
2022-12-11T03:18:11.768Z,11.92
2022-12-11T03:21:25.342Z,11.92
2022-12-11T03:24:39.955Z,11.86
2022-12-11T03:27:52.042Z,11.82
2022-12-11T03:30:59.491Z,11.64
2022-12-11T03:34:20.749Z,11.78
2022-12-11T03:37:29.998Z,11.64
2022-12-11T03:40:38.260Z,11.56
2022-12-11T03:43:46.295Z,11.81
2022-12-11T03:46:53.785Z,11.74
2022-12-11T03:50:02.745Z,11.63
2022-12-11T03:53:09.434Z,11.79
2022-12-11T03:56:18.833Z,11.88
2022-12-11T03:59:25.578Z,11.94
2022-12-11T04:02:32.425Z,12.11
2022-12-11T04:05:40.609Z,12.15
2022-12-11T04:08:47.256Z,12.23
2022-12-11T04:11:53.273Z,12.16
2022-12-11T04:15:05.686Z,12.32
2022-12-11T04:18:29.801Z,12.28
2022-12-11T04:21:51.102Z,12.40
2022-12-11T04:24:57.539Z,12.15
2022-12-11T04:28:03.618Z,12.05
2022-12-11T04:31:13.394Z,12.93
2022-12-11T04:34:19.972Z,12.40
2022-12-11T04:37:28.573Z,12.17
2022-12-11T04:40:35.026Z,12.10
2022-12-11T04:43:41.842Z,12.15
2022-12-11T04:46:48.310Z,12.16
2022-12-11T04:50:09.486Z,12.10
2022-12-11T04:53:17.361Z,12.05
2022-12-11T04:56:23.552Z,12.02
2022-12-11T04:59:29.606Z,12.33
2022-12-11T05:02:37.152Z,12.47
2022-12-11T05:05:49.125Z,12.49
2022-12-11T05:08:57.146Z,12.13
2022-12-11T05:12:03.709Z,12.39
2022-12-11T05:15:11.327Z,12.33
2022-12-11T05:18:18.106Z,12.28
2022-12-11T05:21:24.117Z,12.49
2022-12-11T05:24:31.793Z,12.41
2022-12-11T05:27:37.974Z,12.53
2022-12-11T05:30:44.302Z,12.59
2022-12-11T05:34:05.778Z,12.37
2022-12-11T05:37:12.027Z,12.22
2022-12-11T05:40:19.927Z,12.44
2022-12-11T05:43:27.299Z,12.44
2022-12-11T05:46:33.605Z,12.33
2022-12-11T05:49:40.412Z,12.12
2022-12-11T05:52:46.798Z,12.04
2022-12-11T05:55:54.433Z,12.17
2022-12-11T05:59:02.014Z,12.19
2022-12-11T06:02:08.269Z,12.02
2022-12-11T06:05:14.903Z,12.17
2022-12-11T06:08:32.120Z,12.08
2022-12-11T06:11:39.919Z,11.94
2022-12-11T06:14:46.012Z,12.14
2022-12-11T06:17:52.345Z,11.89
2022-12-11T06:20:58.492Z,11.85
2022-12-11T06:24:05.822Z,12.16
2022-12-11T06:27:15.534Z,12.04
2022-12-11T06:30:21.564Z,11.99
2022-12-11T06:33:28.170Z,11.89
2022-12-11T06:36:34.075Z,12.06
2022-12-11T06:39:40.441Z,12.10
2022-12-11T06:42:48.516Z,11.98
2022-12-11T06:45:59.164Z,12.15
2022-12-11T06:49:08.362Z,12.32
2022-12-11T06:52:18.369Z,12.27
2022-12-11T06:55:39.034Z,12.39
2022-12-11T06:58:46.560Z,12.50
2022-12-11T07:01:52.931Z,12.25
2022-12-11T07:04:59.531Z,12.43
2022-12-11T07:08:07.552Z,12.32
2022-12-11T07:11:15.369Z,12.43
2022-12-11T07:14:23.086Z,12.72
2022-12-11T07:17:30.298Z,12.40
2022-12-11T07:20:37.203Z,12.46
2022-12-11T07:23:43.552Z,12.83
2022-12-11T07:26:50.094Z,13.05
2022-12-11T07:29:57.850Z,12.86
2022-12-11T07:33:04.511Z,12.77
2022-12-11T07:36:13.493Z,12.98
2022-12-11T07:39:19.746Z,13.04
2022-12-11T07:42:25.854Z,13.05
2022-12-11T07:45:33.647Z,12.87
2022-12-11T07:48:53.870Z,12.87
2022-12-11T07:51:59.954Z,12.77
2022-12-11T07:55:07.200Z,12.86
2022-12-11T07:58:13.757Z,12.87
2022-12-11T08:01:22.975Z,13.07
2022-12-11T08:04:29.273Z,12.93
2022-12-11T08:07:36.887Z,13.23
2022-12-11T08:10:43.674Z,13.01
2022-12-11T08:13:50.914Z,13.04
2022-12-11T08:17:00.334Z,12.77
2022-12-11T08:20:08.432Z,12.76
2022-12-11T08:23:14.692Z,12.93
2022-12-11T08:26:24.069Z,13.57
2022-12-11T08:29:29.996Z,13.08
2022-12-11T08:32:38.336Z,12.89
2022-12-11T08:35:46.537Z,12.66
2022-12-11T08:38:53.283Z,12.96
2022-12-11T08:41:59.876Z,12.86
2022-12-11T08:45:07.567Z,12.99
2022-12-11T08:48:15.765Z,13.41
2022-12-11T08:51:23.873Z,13.54
2022-12-11T08:54:30.092Z,13.26
2022-12-11T08:57:36.621Z,13.65
2022-12-11T09:00:42.911Z,13.85
2022-12-11T09:03:50.753Z,13.99
2022-12-11T09:06:57.124Z,13.96
2022-12-11T09:10:03.891Z,14.24
2022-12-11T09:13:10.087Z,14.08
2022-12-11T09:16:19.242Z,13.89
2022-12-11T09:19:32.096Z,13.95
2022-12-11T09:22:38.898Z,14.21
2022-12-11T09:25:45.160Z,14.28
2022-12-11T09:28:53.450Z,14.29
2022-12-11T09:32:00.142Z,13.85
2022-12-11T09:35:10.441Z,14.05
2022-12-11T09:38:16.801Z,14.42
2022-12-11T09:41:38.263Z,14.35
2022-12-11T09:44:48.306Z,14.54
2022-12-11T09:47:57.569Z,14.34
2022-12-11T09:51:14.761Z,14.02
2022-12-11T09:54:20.844Z,14.31
2022-12-11T09:57:44.154Z,14.22
2022-12-11T10:00:56.617Z,14.33
2022-12-11T10:04:22.204Z,14.15
2022-12-11T10:07:38.107Z,14.24
2022-12-11T10:10:50.928Z,14.08
2022-12-11T10:14:07.842Z,13.96
2022-12-11T10:17:20.275Z,13.50
2022-12-11T10:20:31.268Z,13.50
2022-12-11T10:23:45.401Z,13.80
2022-12-11T10:26:57.947Z,13.90
2022-12-11T10:30:15.800Z,13.92
2022-12-11T10:33:24.124Z,13.84
2022-12-11T10:36:32.700Z,13.85
2022-12-11T10:39:40.202Z,13.68
2022-12-11T10:42:56.074Z,13.72
2022-12-11T10:46:02.520Z,14.10
2022-12-11T10:49:23.185Z,14.18
2022-12-11T10:52:33.785Z,13.78
2022-12-11T10:55:47.026Z,14.23
2022-12-11T10:58:55.742Z,14.23
2022-12-11T11:02:02.840Z,13.94
2022-12-11T11:05:15.343Z,14.07
2022-12-11T11:08:24.012Z,14.02
2022-12-11T11:11:34.480Z,14.34
2022-12-11T11:14:40.998Z,14.65
2022-12-11T11:17:54.969Z,14.35
2022-12-11T11:21:02.827Z,13.84
2022-12-11T11:24:29.898Z,14.06
2022-12-11T11:27:43.625Z,13.97
2022-12-11T11:31:06.641Z,13.91
2022-12-11T11:34:22.438Z,14.13
2022-12-11T11:37:34.149Z,14.07
2022-12-11T11:40:48.060Z,13.82
2022-12-11T11:44:00.721Z,13.73
2022-12-11T11:47:16.047Z,13.81
2022-12-11T11:50:33.399Z,13.36
2022-12-11T11:53:41.884Z,13.54
2022-12-11T11:56:51.388Z,13.65
2022-12-11T12:00:09.975Z,13.37
2022-12-11T12:03:19.874Z,13.24
2022-12-11T12:06:38.421Z,13.23
2022-12-11T12:09:52.907Z,13.40
2022-12-11T12:13:03.272Z,13.38
2022-12-11T12:16:51.113Z,13.49
2022-12-11T12:19:53.259Z,13.27
2022-12-11T12:23:16.203Z,13.27
2022-12-11T12:26:28.366Z,13.41
2022-12-11T12:29:49.613Z,13.10
2022-12-11T12:33:21.419Z,13.00
2022-12-11T12:36:35.665Z,13.03
2022-12-11T12:39:50.681Z,12.84
2022-12-11T12:43:06.711Z,12.75
2022-12-11T12:46:22.308Z,12.59
2022-12-11T12:49:41.349Z,12.57
2022-12-11T12:52:50.207Z,12.52
2022-12-11T12:56:08.971Z,12.49
2022-12-11T12:59:24.056Z,12.69
2022-12-11T13:02:31.555Z,12.42
2022-12-11T13:05:42.257Z,12.43
2022-12-11T13:08:51.920Z,12.30
2022-12-11T13:12:00.513Z,12.51
2022-12-11T13:15:07.820Z,12.51
2022-12-11T13:18:35.946Z,12.11
2022-12-11T13:21:43.937Z,12.34
2022-12-11T13:24:59.753Z,12.48
2022-12-11T13:28:08.553Z,12.35
2022-12-11T13:31:34.609Z,12.39
2022-12-11T13:34:44.024Z,12.20
2022-12-11T13:37:54.073Z,12.23
2022-12-11T13:41:01.439Z,12.07
2022-12-11T13:44:09.591Z,11.71
2022-12-11T13:47:18.801Z,11.98
2022-12-11T13:50:30.128Z,11.71
2022-12-11T13:53:37.983Z,11.66
2022-12-11T13:56:55.873Z,11.59
2022-12-11T14:00:01.728Z,11.81
2022-12-11T14:03:08.562Z,11.75
2022-12-11T14:06:18.745Z,11.59
2022-12-11T14:09:29.195Z,11.66
2022-12-11T14:12:35.296Z,11.79
2022-12-11T14:15:46.562Z,11.80
2022-12-11T14:18:54.529Z,11.83
2022-12-11T14:22:03.336Z,11.54
2022-12-11T14:25:22.470Z,11.48
2022-12-11T14:28:32.184Z,11.39
2022-12-11T14:31:41.975Z,11.52
2022-12-11T14:34:50.841Z,11.23
2022-12-11T14:38:00.120Z,11.23
2022-12-11T14:41:15.050Z,11.36
2022-12-11T14:44:25.532Z,11.14
2022-12-11T14:47:35.558Z,11.30
2022-12-11T14:50:47.505Z,11.08
2022-12-11T14:53:55.585Z,11.03
2022-12-11T14:57:06.756Z,10.91
2022-12-11T15:00:24.069Z,11.11
2022-12-11T15:03:34.349Z,10.89
2022-12-11T15:06:46.207Z,11.04
2022-12-11T15:09:53.158Z,11.01
2022-12-11T15:13:01.245Z,11.21
2022-12-11T15:16:10.260Z,11.17
2022-12-11T15:19:22.088Z,11.32
2022-12-11T15:22:33.217Z,11.15
2022-12-11T15:25:39.947Z,10.86
2022-12-11T15:28:47.758Z,10.77
2022-12-11T15:32:01.648Z,10.95
2022-12-11T15:35:23.632Z,11.00
2022-12-11T15:38:37.542Z,10.93
2022-12-11T15:41:44.294Z,10.79
2022-12-11T15:44:52.244Z,10.75
2022-12-11T15:47:59.570Z,10.49
2022-12-11T15:51:06.545Z,10.58
2022-12-11T15:54:12.501Z,10.80
2022-12-11T15:57:22.986Z,10.49
2022-12-11T16:00:31.182Z,10.31
2022-12-11T16:03:37.812Z,10.53
2022-12-11T16:06:46.497Z,10.55
2022-12-11T16:09:53.288Z,10.72
2022-12-11T16:13:02.689Z,11.02
2022-12-11T16:16:10.780Z,10.99
2022-12-11T16:19:17.132Z,10.96
2022-12-11T16:22:23.433Z,10.89
2022-12-11T16:25:29.861Z,11.03
2022-12-11T16:28:36.307Z,11.07
2022-12-11T16:31:44.316Z,10.87
2022-12-11T16:34:50.437Z,10.69
2022-12-11T16:37:57.270Z,10.75
2022-12-11T16:41:03.822Z,10.75
2022-12-11T16:44:10.618Z,10.69
2022-12-11T16:47:18.225Z,10.74
2022-12-11T16:50:25.470Z,10.64
2022-12-11T16:53:31.644Z,10.59
2022-12-11T16:56:38.157Z,10.73
2022-12-11T16:59:44.534Z,10.68
2022-12-11T17:02:52.149Z,10.47
2022-12-11T17:05:59.244Z,10.63
2022-12-11T17:09:05.668Z,10.77
2022-12-11T17:12:12.049Z,10.70
2022-12-11T17:15:18.721Z,10.51
2022-12-11T17:18:26.883Z,10.50
2022-12-11T17:21:33.209Z,10.30
2022-12-11T17:24:39.742Z,10.48
2022-12-11T17:27:46.324Z,10.45
2022-12-11T17:30:53.332Z,10.16
2022-12-11T17:34:01.794Z,10.38
2022-12-11T17:37:08.285Z,10.33
2022-12-11T17:40:14.582Z,10.64
2022-12-11T17:43:21.170Z,10.65
2022-12-11T17:46:27.411Z,10.52
2022-12-11T17:49:35.125Z,10.37
2022-12-11T17:52:44.357Z,10.16
2022-12-11T17:55:52.084Z,10.25
2022-12-11T17:58:59.706Z,10.18
2022-12-11T18:02:05.939Z,10.25
2022-12-11T18:05:15.087Z,10.25
2022-12-11T18:08:24.633Z,9.97
2022-12-11T18:11:30.842Z,10.17
2022-12-11T18:14:37.930Z,10.03
2022-12-11T18:17:44.238Z,10.04
2022-12-11T18:20:51.969Z,9.83
2022-12-11T18:23:58.438Z,9.75
2022-12-11T18:27:05.123Z,9.55
2022-12-11T18:30:14.312Z,9.54
2022-12-11T18:33:20.543Z,9.64
2022-12-11T18:36:29.785Z,9.60
2022-12-11T18:39:36.357Z,9.36
2022-12-11T18:42:42.557Z,9.27
2022-12-11T18:45:48.743Z,9.44
2022-12-11T18:48:54.936Z,9.39
2022-12-11T18:52:03.934Z,9.22
2022-12-11T18:55:10.830Z,9.03
2022-12-11T18:58:20.731Z,9.26
2022-12-11T19:01:28.998Z,9.13
2022-12-11T19:04:36.292Z,9.00
2022-12-11T19:07:43.879Z,8.98
2022-12-11T19:10:50.189Z,8.79
2022-12-11T19:13:57.852Z,8.59
2022-12-11T19:17:04.579Z,8.82
2022-12-11T19:20:47.088Z,9.04
2022-12-11T19:23:41.654Z,9.01
2022-12-11T19:26:48.584Z,8.89
2022-12-11T19:29:55.048Z,8.94
2022-12-11T19:33:01.373Z,8.80
2022-12-11T19:36:10.645Z,8.62
2022-12-11T19:39:19.757Z,8.83
2022-12-11T19:42:27.573Z,8.79
2022-12-11T19:45:33.616Z,8.77
2022-12-11T19:48:41.588Z,8.68
2022-12-11T19:51:48.371Z,8.66
2022-12-11T19:54:56.049Z,8.41
2022-12-11T19:58:02.432Z,8.22
2022-12-11T20:01:09.351Z,8.47
2022-12-11T20:04:17.377Z,8.60
2022-12-11T20:07:30.213Z,8.47
2022-12-11T20:10:38.651Z,8.22
2022-12-11T20:13:46.014Z,8.31
2022-12-11T20:17:12.946Z,8.28
2022-12-11T20:20:21.407Z,7.99
2022-12-11T20:23:27.591Z,7.84
2022-12-11T20:26:36.613Z,7.44
2022-12-11T20:29:42.673Z,7.92
2022-12-11T20:32:48.841Z,7.94
2022-12-11T20:35:54.856Z,8.02
2022-12-11T20:39:01.318Z,7.96
2022-12-11T20:42:11.054Z,7.74
2022-12-11T20:45:18.440Z,7.65
2022-12-11T20:48:24.798Z,7.74
2022-12-11T20:51:32.791Z,7.22
2022-12-11T20:54:39.245Z,7.78
2022-12-11T20:57:46.572Z,7.58
2022-12-11T21:00:52.718Z,7.65
2022-12-11T21:03:59.323Z,7.42
2022-12-11T21:07:05.174Z,7.28
2022-12-11T21:10:11.838Z,7.83
2022-12-11T21:13:19.355Z,7.87
2022-12-11T21:16:25.807Z,7.83
2022-12-11T21:19:32.138Z,7.45
2022-12-11T21:22:38.345Z,7.24
2022-12-11T21:25:45.060Z,7.75
2022-12-11T21:28:54.501Z,7.46
2022-12-11T21:32:01.198Z,7.49
2022-12-11T21:35:08.533Z,7.66
2022-12-11T21:38:15.012Z,7.73
2022-12-11T21:41:24.160Z,7.82
2022-12-11T21:47:58.783Z,7.55
2022-12-11T21:51:09.996Z,7.57
2022-12-11T21:54:18.696Z,7.41
2022-12-11T21:57:26.837Z,7.52
2022-12-11T22:00:37.036Z,7.65
2022-12-11T22:03:43.836Z,7.51
2022-12-11T22:06:49.937Z,7.61
2022-12-11T22:09:56.237Z,7.71
2022-12-11T22:13:02.725Z,7.73
2022-12-11T22:16:10.465Z,7.39
2022-12-11T22:19:16.757Z,7.48
2022-12-11T22:22:23.113Z,7.85
2022-12-11T22:25:29.141Z,7.15
2022-12-11T22:28:35.357Z,7.65
2022-12-11T22:31:43.127Z,7.29
2022-12-11T22:34:49.294Z,7.00
2022-12-11T22:37:55.702Z,7.70
2022-12-11T22:41:03.101Z,7.88
2022-12-11T22:44:14.048Z,7.66
2022-12-11T22:47:21.708Z,7.67
2022-12-11T22:50:27.980Z,7.48
2022-12-11T22:53:34.303Z,7.55
2022-12-11T22:56:40.588Z,7.60
2022-12-11T22:59:46.637Z,7.73
2022-12-11T23:02:54.570Z,7.25
2022-12-11T23:06:05.118Z,7.46
2022-12-11T23:09:12.318Z,7.95
2022-12-11T23:12:18.979Z,8.01
2022-12-11T23:15:25.563Z,7.98
2022-12-11T23:18:33.023Z,8.15
2022-12-11T23:21:39.828Z,8.21
2022-12-11T23:24:45.880Z,7.91
2022-12-11T23:27:51.876Z,8.12
2022-12-11T23:30:58.442Z,8.13
2022-12-11T23:34:06.404Z,8.15
2022-12-11T23:37:12.689Z,8.10
2022-12-11T23:40:19.101Z,8.15
2022-12-11T23:43:25.238Z,7.83
2022-12-11T23:46:31.579Z,7.62
2022-12-11T23:49:39.027Z,7.72
2022-12-11T23:52:44.956Z,7.82
2022-12-11T23:55:50.826Z,7.90
2022-12-11T23:58:57.513Z,7.73
